createdAt,value
2018-11-28T00:02:21.285Z,6.22
2018-11-28T00:04:49.483Z,6.33
2018-11-28T00:07:17.673Z,6.40
2018-11-28T00:09:45.824Z,5.40
2018-11-28T00:12:14.558Z,6.72
2018-11-28T00:14:42.754Z,6.92
2018-11-28T00:17:10.895Z,6.80
2018-11-28T00:19:39.064Z,7.22
2018-11-28T00:22:07.328Z,6.10
2018-11-28T00:24:35.457Z,6.60
2018-11-28T00:27:03.584Z,6.55
2018-11-28T00:29:31.757Z,6.55
2018-11-28T00:32:00.892Z,7.42
2018-11-28T00:34:29.103Z,5.78
2018-11-28T00:36:57.941Z,7.72
2018-11-28T00:39:26.115Z,5.90
2018-11-28T00:41:54.281Z,5.87
2018-11-28T00:44:22.425Z,7.05
2018-11-28T00:46:52.241Z,6.20
2018-11-28T00:49:20.453Z,7.08
2018-11-28T00:51:48.761Z,6.95
2018-11-28T00:54:16.880Z,6.72
2018-11-28T00:56:45.040Z,6.28
2018-11-28T00:59:13.209Z,6.92
2018-11-28T01:01:41.431Z,6.35
2018-11-28T01:04:09.573Z,7.03
2018-11-28T01:06:37.715Z,6.33
2018-11-28T01:09:06.685Z,6.45
2018-11-28T01:11:35.121Z,6.62
2018-11-28T01:14:03.271Z,6.40
2018-11-28T01:16:31.459Z,6.55
2018-11-28T01:18:59.732Z,6.33
2018-11-28T01:21:27.911Z,6.95
2018-11-28T01:23:56.148Z,7.40
2018-11-28T01:26:24.303Z,6.30
2018-11-28T01:28:52.535Z,6.90
2018-11-28T01:31:20.692Z,6.67
2018-11-28T01:33:48.917Z,6.72
2018-11-28T01:36:17.165Z,7.42
2018-11-28T01:38:45.371Z,6.75
2018-11-28T01:41:13.642Z,5.70
2018-11-28T01:43:41.949Z,8.43
2018-11-28T01:46:10.427Z,7.20
2018-11-28T01:48:38.567Z,7.45
2018-11-28T01:51:07.163Z,7.17
2018-11-28T01:53:35.573Z,6.87
2018-11-28T01:56:04.253Z,7.80
2018-11-28T01:58:32.435Z,7.37
2018-11-28T02:01:00.814Z,8.13
2018-11-28T02:03:29.069Z,8.20
2018-11-28T02:05:57.303Z,7.72
2018-11-28T02:08:25.435Z,7.72
2018-11-28T02:10:54.270Z,7.85
2018-11-28T02:13:22.441Z,8.05
2018-11-28T02:15:50.677Z,8.98
2018-11-28T02:18:18.848Z,7.65
2018-11-28T02:20:47.127Z,7.62
2018-11-28T02:23:15.363Z,8.43
2018-11-28T02:25:44.293Z,8.78
2018-11-28T02:28:12.534Z,8.70
2018-11-28T02:30:40.718Z,8.40
2018-11-28T02:33:08.892Z,8.20
2018-11-28T02:35:38.289Z,8.53
2018-11-28T02:38:06.510Z,7.83
2018-11-28T02:40:35.250Z,8.23
2018-11-28T02:43:03.547Z,8.33
2018-11-28T02:45:31.812Z,9.63
2018-11-28T02:47:59.929Z,8.50
2018-11-28T02:50:28.298Z,8.50
2018-11-28T02:52:56.428Z,8.23
2018-11-28T02:55:24.587Z,8.45
2018-11-28T02:57:52.820Z,9.65
2018-11-28T03:00:24.028Z,8.78
2018-11-28T03:02:52.284Z,8.95
2018-11-28T03:05:20.689Z,8.10
2018-11-28T03:07:48.895Z,9.18
2018-11-28T03:10:18.211Z,8.55
2018-11-28T03:12:46.553Z,8.80
2018-11-28T03:15:25.124Z,8.55
2018-11-28T03:17:53.247Z,8.75
2018-11-28T03:20:21.437Z,9.95
2018-11-28T03:22:49.701Z,9.20
2018-11-28T03:25:17.854Z,9.38
2018-11-28T03:27:46.038Z,9.50
2018-11-28T03:30:15.286Z,7.80
2018-11-28T03:32:43.514Z,7.97
2018-11-28T03:35:12.896Z,10.10
2018-11-28T03:37:41.077Z,9.73
2018-11-28T03:40:10.453Z,9.30
2018-11-28T03:42:38.830Z,8.55
2018-11-28T03:45:11.917Z,8.70
2018-11-28T03:47:40.339Z,8.90
2018-11-28T03:50:10.866Z,9.18
2018-11-28T03:52:39.524Z,10.28
2018-11-28T03:55:18.277Z,8.55
2018-11-28T03:57:47.499Z,8.60
2018-11-28T04:00:18.671Z,9.55
2018-11-28T04:02:47.172Z,10.58
2018-11-28T04:05:15.309Z,10.43
2018-11-28T04:07:43.577Z,8.85
2018-11-28T04:10:20.834Z,9.75
2018-11-28T04:12:49.236Z,9.90
2018-11-28T04:15:19.718Z,9.00
2018-11-28T04:17:47.988Z,10.10
2018-11-28T04:20:18.116Z,9.45
2018-11-28T04:22:46.427Z,9.40
2018-11-28T04:25:16.391Z,9.00
2018-11-28T04:27:44.529Z,9.80
2018-11-28T04:30:14.889Z,9.38
2018-11-28T04:32:43.135Z,9.10
2018-11-28T04:35:12.272Z,9.48
2018-11-28T04:37:40.618Z,9.58
2018-11-28T04:40:11.013Z,8.85
2018-11-28T04:42:39.355Z,10.20
2018-11-28T04:45:11.849Z,10.58
2018-11-28T04:47:40.193Z,10.65
2018-11-28T04:50:09.470Z,9.28
2018-11-28T04:52:37.770Z,10.65
2018-11-28T04:55:08.370Z,11.00
2018-11-28T04:57:36.791Z,11.10
2018-11-28T05:00:14.081Z,10.50
2018-11-28T05:02:42.443Z,10.63
2018-11-28T05:05:11.148Z,11.18
2018-11-28T05:07:40.204Z,10.05
2018-11-28T05:10:09.743Z,10.60
2018-11-28T05:12:37.869Z,10.10
2018-11-28T05:15:08.017Z,10.65
2018-11-28T05:17:36.185Z,10.75
2018-11-28T05:20:06.333Z,11.80
2018-11-28T05:22:35.329Z,11.80
2018-11-28T05:25:03.844Z,12.05
2018-11-28T05:27:32.105Z,12.03
2018-11-28T05:30:00.253Z,11.28
2018-11-28T05:32:28.469Z,11.08
2018-11-28T05:34:56.591Z,11.57
2018-11-28T05:37:25.431Z,10.45
2018-11-28T05:39:57.169Z,12.03
2018-11-28T05:42:26.977Z,12.98
2018-11-28T05:44:55.181Z,12.55
2018-11-28T05:47:23.351Z,12.50
2018-11-28T05:49:51.665Z,11.38
2018-11-28T05:52:19.885Z,12.90
2018-11-28T05:54:48.022Z,12.70
2018-11-28T05:57:16.222Z,13.80
2018-11-28T05:59:44.409Z,12.35
2018-11-28T06:02:12.534Z,12.78
2018-11-28T06:04:41.959Z,12.90
2018-11-28T06:07:13.207Z,12.82
2018-11-28T06:09:41.905Z,12.85
2018-11-28T06:12:10.095Z,13.22
2018-11-28T06:14:38.213Z,12.40
2018-11-28T06:17:06.411Z,13.35
2018-11-28T06:19:34.630Z,14.87
2018-11-28T06:22:03.855Z,12.40
2018-11-28T06:24:31.999Z,13.25
2018-11-28T06:27:00.216Z,13.40
2018-11-28T06:29:28.489Z,13.50
2018-11-28T06:31:56.938Z,13.78
2018-11-28T06:34:25.166Z,12.60
2018-11-28T06:36:53.323Z,12.45
2018-11-28T06:39:21.585Z,14.95
2018-11-28T06:41:49.758Z,14.23
2018-11-28T06:44:18.175Z,13.90
2018-11-28T06:46:46.427Z,12.82
2018-11-28T06:49:14.583Z,14.55
2018-11-28T06:51:42.859Z,13.38
2018-11-28T06:54:11.083Z,12.30
2018-11-28T06:56:39.281Z,15.45
2018-11-28T06:59:07.531Z,13.80
2018-11-28T07:01:35.905Z,14.87
2018-11-28T07:04:04.076Z,13.15
2018-11-28T07:06:32.355Z,13.43
2018-11-28T07:09:00.567Z,14.87
2018-11-28T07:11:28.978Z,13.45
2018-11-28T07:13:57.087Z,12.73
2018-11-28T07:16:25.360Z,13.45
2018-11-28T07:19:05.853Z,14.10
2018-11-28T07:21:34.022Z,12.73
2018-11-28T07:24:02.323Z,13.88
2018-11-28T07:26:30.594Z,13.80
2018-11-28T07:28:58.982Z,12.73
2018-11-28T07:31:27.166Z,12.95
2018-11-28T07:33:55.407Z,12.05
2018-11-28T07:36:23.791Z,14.28
2018-11-28T07:38:51.960Z,12.80
2018-11-28T07:41:20.449Z,13.30
2018-11-28T07:43:48.670Z,13.93
2018-11-28T07:46:16.948Z,12.45
2018-11-28T07:48:45.120Z,13.08
2018-11-28T07:51:13.470Z,13.78
2018-11-28T07:53:41.999Z,14.45
2018-11-28T07:56:10.236Z,13.25
2018-11-28T07:58:38.532Z,12.95
2018-11-28T08:01:06.972Z,13.48
2018-11-28T08:03:35.267Z,12.30
2018-11-28T08:06:03.390Z,13.65
2018-11-28T08:08:36.732Z,12.18
2018-11-28T08:11:05.638Z,13.05
2018-11-28T08:13:33.761Z,13.28
2018-11-28T08:16:01.935Z,15.18
2018-11-28T08:18:33.589Z,12.90
2018-11-28T08:21:01.833Z,12.93
2018-11-28T08:23:30.047Z,10.50
2018-11-28T08:25:59.093Z,14.20
2018-11-28T08:28:30.323Z,13.90
2018-11-28T08:30:59.002Z,13.50
2018-11-28T08:33:30.236Z,12.55
2018-11-28T08:35:58.523Z,11.85
2018-11-28T08:38:27.699Z,12.10
2018-11-28T08:40:55.890Z,11.88
2018-11-28T08:43:24.041Z,11.48
2018-11-28T08:45:52.169Z,11.50
2018-11-28T08:48:20.856Z,11.70
2018-11-28T08:50:53.407Z,11.20
2018-11-28T08:53:21.616Z,11.93
2018-11-28T08:55:50.074Z,11.63
2018-11-28T08:58:18.499Z,11.08
2018-11-28T09:00:46.870Z,10.95
2018-11-28T09:03:14.970Z,10.08
2018-11-28T09:05:43.251Z,9.95
2018-11-28T09:08:11.394Z,10.08
2018-11-28T09:10:39.712Z,10.78
2018-11-28T09:13:07.860Z,9.95
2018-11-28T09:15:36.039Z,11.33
2018-11-28T09:18:04.437Z,14.60
2018-11-28T09:20:33.904Z,10.32
2018-11-28T09:23:09.135Z,9.48
2018-11-28T09:25:37.890Z,9.60
2018-11-28T09:28:06.784Z,13.10
2018-11-28T09:30:35.229Z,12.88
2018-11-28T09:33:03.451Z,10.05
2018-11-28T09:35:31.887Z,11.10
2018-11-28T09:38:00.556Z,9.88
2018-11-28T09:40:28.801Z,9.80
2018-11-28T09:42:58.234Z,10.72
2018-11-28T09:45:26.756Z,10.03
2018-11-28T09:47:54.945Z,10.05
2018-11-28T09:50:26.708Z,8.65
2018-11-28T09:52:54.881Z,8.20
2018-11-28T09:55:26.935Z,8.55
2018-11-28T09:57:55.463Z,8.15
2018-11-28T10:00:25.121Z,8.03
2018-11-28T10:03:01.949Z,6.95
2018-11-28T10:05:31.456Z,8.60
2018-11-28T10:07:59.851Z,7.45
2018-11-28T10:10:28.174Z,7.65
2018-11-28T10:12:58.569Z,7.92
2018-11-28T10:15:27.853Z,8.68
2018-11-28T10:17:56.139Z,7.40
2018-11-28T10:20:24.517Z,7.62
2018-11-28T10:22:53.491Z,7.65
2018-11-28T10:25:23.552Z,6.30
2018-11-28T10:28:00.422Z,6.60
2018-11-28T10:30:30.688Z,6.12
2018-11-28T10:32:59.150Z,6.20
2018-11-28T10:35:27.738Z,8.10
2018-11-28T10:37:56.201Z,7.17
2018-11-28T10:40:25.116Z,10.60
2018-11-28T10:42:56.542Z,5.95
2018-11-28T10:45:25.679Z,11.25
2018-11-28T10:47:53.897Z,15.23
2018-11-28T10:50:22.164Z,5.90
2018-11-28T10:52:50.458Z,6.08
2018-11-28T10:55:21.814Z,6.42
2018-11-28T10:57:50.758Z,6.50
2018-11-28T11:00:31.342Z,9.10
2018-11-28T11:03:05.116Z,6.15
2018-11-28T11:06:00.921Z,6.90
2018-11-28T11:08:35.087Z,6.30
2018-11-28T11:11:09.830Z,7.53
2018-11-28T11:14:43.894Z,5.50
2018-11-28T11:17:17.008Z,5.60
2018-11-28T11:19:45.423Z,6.55
2018-11-28T11:22:14.900Z,7.15
2018-11-28T11:24:43.952Z,7.12
2018-11-28T11:27:12.175Z,6.30
2018-11-28T11:29:40.423Z,5.83
2018-11-28T11:32:08.609Z,5.50
2018-11-28T11:34:37.134Z,6.12
2018-11-28T11:37:05.558Z,5.55
2018-11-28T11:39:35.264Z,6.17
2018-11-28T11:42:03.526Z,6.22
2018-11-28T11:44:32.260Z,5.67
2018-11-28T11:47:01.796Z,6.17
2018-11-28T11:49:29.926Z,6.72
2018-11-28T11:51:58.039Z,5.50
2018-11-28T11:54:27.571Z,7.55
2018-11-28T11:56:55.709Z,6.58
2018-11-28T11:59:24.060Z,5.30
2018-11-28T12:01:54.818Z,5.10
2018-11-28T12:04:20.520Z,5.20
2018-11-28T12:06:48.784Z,5.30
2018-11-28T12:09:17.177Z,5.58
2018-11-28T12:11:45.333Z,7.97
2018-11-28T12:14:13.526Z,4.85
2018-11-28T12:16:43.780Z,4.92
2018-11-28T12:19:12.425Z,5.70
2018-11-28T12:21:40.585Z,5.20
2018-11-28T12:24:08.867Z,4.72
2018-11-28T12:26:39.065Z,5.28
2018-11-28T12:29:07.254Z,5.62
2018-11-28T12:31:35.444Z,4.62
2018-11-28T12:34:04.210Z,4.60
2018-11-28T12:36:32.332Z,5.42
2018-11-28T12:39:01.322Z,4.40
2018-11-28T12:41:29.522Z,5.28
2018-11-28T12:43:57.817Z,4.12
2018-11-28T12:46:25.997Z,5.15
2018-11-28T12:48:54.148Z,5.42
2018-11-28T12:51:22.293Z,4.90
2018-11-28T12:53:50.453Z,5.15
2018-11-28T12:56:18.728Z,4.67
2018-11-28T12:58:46.920Z,4.62
2018-11-28T13:01:15.314Z,4.85
2018-11-28T13:03:44.044Z,5.00
2018-11-28T13:06:12.425Z,4.58
2018-11-28T13:08:40.762Z,4.75
2018-11-28T13:11:10.183Z,4.35
2018-11-28T13:13:38.722Z,4.47
2018-11-28T13:16:07.850Z,4.75
2018-11-28T13:18:36.273Z,4.60
2018-11-28T13:21:04.736Z,4.55
2018-11-28T13:23:33.607Z,5.00
2018-11-28T13:26:03.041Z,5.10
2018-11-28T13:28:31.265Z,5.00
2018-11-28T13:30:59.611Z,3.75
2018-11-28T13:33:28.003Z,5.22
2018-11-28T13:35:56.306Z,4.33
2018-11-28T13:38:25.267Z,4.65
2018-11-28T13:40:53.571Z,3.95
2018-11-28T13:43:24.751Z,3.62
2018-11-28T13:45:52.929Z,5.30
2018-11-28T13:48:21.623Z,3.98
2018-11-28T13:50:49.819Z,4.80
2018-11-28T13:53:18.378Z,4.87
2018-11-28T13:56:57.414Z,5.60
2018-11-28T13:58:24.609Z,6.30
2018-11-28T14:00:58.259Z,4.85
2018-11-28T14:03:26.454Z,5.75
2018-11-28T14:05:55.176Z,4.62
2018-11-28T14:08:23.458Z,5.72
2018-11-28T14:10:55.755Z,5.17
2018-11-28T14:13:24.053Z,4.90
2018-11-28T14:15:53.221Z,5.50
2018-11-28T14:18:21.531Z,5.70
2018-11-28T14:20:49.740Z,5.15
2018-11-28T14:23:17.917Z,6.25
2018-11-28T14:25:46.129Z,5.67
2018-11-28T14:28:14.316Z,5.92
2018-11-28T14:30:49.404Z,5.83
2018-11-28T14:33:22.253Z,5.72
2018-11-28T14:35:53.736Z,5.75
2018-11-28T14:38:21.847Z,5.67
2018-11-28T14:40:52.311Z,6.03
2018-11-28T14:43:20.597Z,5.65
2018-11-28T14:45:48.769Z,6.22
2018-11-28T14:48:17.351Z,4.92
2018-11-28T14:50:57.407Z,6.00
2018-11-28T14:53:26.565Z,5.12
2018-11-28T14:56:00.739Z,31.15
2018-11-28T14:58:29.125Z,7.22
2018-11-28T15:01:01.395Z,4.85
2018-11-28T15:03:34.939Z,5.40
2018-11-28T15:06:37.161Z,4.97
2018-11-28T15:09:15.166Z,7.03
2018-11-28T15:11:44.285Z,6.05
2018-11-28T15:14:12.407Z,5.72
2018-11-28T15:16:40.590Z,4.95
2018-11-28T15:19:08.758Z,7.33
2018-11-28T15:21:36.906Z,6.12
2018-11-28T15:24:05.681Z,4.90
2018-11-28T15:26:33.877Z,5.65
2018-11-28T15:29:02.373Z,5.05
2018-11-28T15:31:30.771Z,7.15
2018-11-28T15:34:01.701Z,5.10
2018-11-28T15:36:29.823Z,5.62
2018-11-28T15:38:57.965Z,5.00
2018-11-28T15:41:26.601Z,4.80
2018-11-28T15:43:54.761Z,6.15
2018-11-28T15:46:23.052Z,5.40
2018-11-28T15:48:51.183Z,4.92
2018-11-28T15:51:19.587Z,5.40
2018-11-28T15:53:47.863Z,5.72
2018-11-28T15:56:15.974Z,4.53
2018-11-28T15:58:44.157Z,5.10
2018-11-28T16:01:12.290Z,6.03
2018-11-28T16:03:40.447Z,6.17
2018-11-28T16:06:08.785Z,4.97
2018-11-28T16:08:36.960Z,5.22
2018-11-28T16:11:12.102Z,5.00
2018-11-28T16:13:41.337Z,6.03
2018-11-28T16:16:09.444Z,4.85
2018-11-28T16:18:37.683Z,4.95
2018-11-28T16:21:06.010Z,5.08
2018-11-28T16:23:34.150Z,5.00
2018-11-28T16:26:02.315Z,5.28
2018-11-28T16:28:30.463Z,6.17
2018-11-28T16:30:58.553Z,4.87
2018-11-28T16:33:28.189Z,5.72
2018-11-28T16:35:56.331Z,5.33
2018-11-28T16:38:24.471Z,4.70
2018-11-28T16:40:53.296Z,5.65
2018-11-28T16:43:21.419Z,5.70
2018-11-28T16:45:49.541Z,6.45
2018-11-28T16:48:17.673Z,5.42
2018-11-28T16:50:46.783Z,5.65
2018-11-28T16:53:14.920Z,7.12
2018-11-28T16:55:43.117Z,6.28
2018-11-28T16:58:11.272Z,6.25
2018-11-28T17:00:40.944Z,7.28
2018-11-28T17:03:09.117Z,5.92
2018-11-28T17:05:37.749Z,5.50
2018-11-28T17:08:09.094Z,6.40
2018-11-28T17:10:38.692Z,6.05
2018-11-28T17:13:07.112Z,6.28
2018-11-28T17:15:35.263Z,6.75
2018-11-28T17:18:03.524Z,5.97
2018-11-28T17:20:31.705Z,6.65
2018-11-28T17:23:00.768Z,7.20
2018-11-28T17:25:31.160Z,6.55
2018-11-28T17:27:59.288Z,6.83
2018-11-28T17:30:33.788Z,7.70
2018-11-28T17:33:01.961Z,6.22
2018-11-28T17:35:30.308Z,4.95
2018-11-28T17:37:58.454Z,5.83
2018-11-28T17:40:28.618Z,6.65
2018-11-28T17:42:57.862Z,5.37
2018-11-28T17:45:26.672Z,5.97
2018-11-28T17:47:54.970Z,5.40
2018-11-28T17:50:24.140Z,8.40
2018-11-28T17:53:03.045Z,6.35
2018-11-28T17:55:44.171Z,6.75
2018-11-28T17:58:12.433Z,5.80
2018-11-28T18:00:40.784Z,6.75
2018-11-28T18:03:08.917Z,6.58
2018-11-28T18:05:37.128Z,10.43
2018-11-28T18:08:17.997Z,7.15
2018-11-28T18:10:46.302Z,6.47
2018-11-28T18:13:15.601Z,6.85
2018-11-28T18:15:45.956Z,8.08
2018-11-28T18:18:15.708Z,7.80
2018-11-28T18:20:50.143Z,8.10
2018-11-28T18:23:14.238Z,7.17
2018-11-28T18:25:45.635Z,7.80
2018-11-28T18:28:14.397Z,7.75
2018-11-28T18:30:42.988Z,7.30
2018-11-28T18:33:12.458Z,7.25
2018-11-28T18:35:40.718Z,8.10
2018-11-28T18:38:09.371Z,9.13
2018-11-28T18:40:38.917Z,7.95
2018-11-28T18:43:08.046Z,7.45
2018-11-28T18:45:39.043Z,8.20
2018-11-28T18:48:07.741Z,6.92
2018-11-28T18:50:35.925Z,12.68
2018-11-28T18:53:04.065Z,8.03
2018-11-28T18:55:32.332Z,8.13
2018-11-28T18:58:00.623Z,8.78
2018-11-28T19:00:28.813Z,8.15
2018-11-28T19:02:57.938Z,8.50
2018-11-28T19:05:26.149Z,9.60
2018-11-28T19:07:54.463Z,8.15
2018-11-28T19:10:26.690Z,9.30
2018-11-28T19:12:53.223Z,8.43
2018-11-28T19:15:23.477Z,9.50
2018-11-28T19:17:51.977Z,9.05
2018-11-28T19:20:21.978Z,8.83
2018-11-28T19:22:50.937Z,9.95
2018-11-28T19:25:22.137Z,8.75
2018-11-28T19:27:50.465Z,9.48
2018-11-28T19:30:21.058Z,8.65
2018-11-28T19:32:49.313Z,8.60
2018-11-28T19:35:17.583Z,10.30
2018-11-28T19:37:45.883Z,10.40
2018-11-28T19:40:18.863Z,10.10
2018-11-28T19:42:47.085Z,9.95
2018-11-28T19:45:15.638Z,10.23
2018-11-28T19:47:44.361Z,10.55
2018-11-28T19:50:14.871Z,10.50
2018-11-28T19:52:43.168Z,11.80
2018-11-28T19:55:11.375Z,10.85
2018-11-28T19:57:39.597Z,12.28
2018-11-28T20:00:11.814Z,11.35
2018-11-28T20:02:40.342Z,10.23
2018-11-28T20:05:08.603Z,12.78
2018-11-28T20:07:37.509Z,11.68
2018-11-28T20:10:09.965Z,12.40
2018-11-28T20:12:39.599Z,11.93
2018-11-28T20:15:11.845Z,11.90
2018-11-28T20:17:42.696Z,11.78
2018-11-28T20:20:12.051Z,12.47
2018-11-28T20:22:40.409Z,12.07
2018-11-28T20:25:11.055Z,14.20
2018-11-28T20:27:39.757Z,12.70
2018-11-28T20:30:13.694Z,12.93
2018-11-28T20:32:42.946Z,12.98
2018-11-28T20:35:11.365Z,15.68
2018-11-28T20:37:41.003Z,14.00
2018-11-28T20:40:13.485Z,14.58
2018-11-28T20:42:43.167Z,14.53
2018-11-28T20:45:14.551Z,13.40
2018-11-28T20:47:44.511Z,14.28
2018-11-28T20:50:18.298Z,13.38
2018-11-28T20:52:54.610Z,16.27
2018-11-28T20:55:17.721Z,16.27
2018-11-28T20:57:45.999Z,15.10
2018-11-28T21:00:16.596Z,14.33
2018-11-28T21:02:47.029Z,16.40
2018-11-28T21:05:16.924Z,14.58
2018-11-28T21:07:56.042Z,17.20
2018-11-28T21:10:46.298Z,14.80
2018-11-28T21:13:16.099Z,14.38
2018-11-28T21:15:45.430Z,16.15
2018-11-28T21:18:48.846Z,14.90
2018-11-28T21:21:17.494Z,16.77
2018-11-28T21:24:07.624Z,16.67
2018-11-28T21:26:35.890Z,16.05
2018-11-28T21:29:08.019Z,15.23
2018-11-28T21:31:36.249Z,16.65
2018-11-28T21:34:05.345Z,15.58
2018-11-28T21:36:32.848Z,16.80
2018-11-28T21:39:01.516Z,15.65
2018-11-28T21:41:30.700Z,15.43
2018-11-28T21:43:59.152Z,16.90
2018-11-28T21:46:27.603Z,15.95
2018-11-28T21:49:05.719Z,14.15
2018-11-28T21:51:41.873Z,15.72
2018-11-28T21:54:10.178Z,14.87
2018-11-28T21:56:38.494Z,14.75
2018-11-28T21:59:07.103Z,17.05
2018-11-28T22:01:35.572Z,16.25
2018-11-28T22:04:03.861Z,18.30
2018-11-28T22:06:32.097Z,15.60
2018-11-28T22:09:00.382Z,15.83
2018-11-28T22:11:28.658Z,15.93
2018-11-28T22:13:56.878Z,14.95
2018-11-28T22:16:25.679Z,15.75
2018-11-28T22:18:53.888Z,16.80
2018-11-28T22:21:22.176Z,15.55
2018-11-28T22:23:51.215Z,16.30
2018-11-28T22:26:19.350Z,20.02
2018-11-28T22:28:49.291Z,16.42
2018-11-28T22:31:17.460Z,15.35
2018-11-28T22:33:45.781Z,16.02
2018-11-28T22:36:13.966Z,15.93
2018-11-28T22:38:42.317Z,15.58
2018-11-28T22:41:11.105Z,17.10
2018-11-28T22:43:39.326Z,14.15
2018-11-28T22:46:07.577Z,16.42
2018-11-28T22:48:35.891Z,16.30
2018-11-28T22:51:04.581Z,16.32
2018-11-28T22:53:32.937Z,15.25
2018-11-28T22:56:01.140Z,16.87
2018-11-28T22:58:29.619Z,16.97
2018-11-28T23:01:03.465Z,17.05
2018-11-28T23:03:32.074Z,17.37
2018-11-28T23:06:00.478Z,15.35
2018-11-28T23:08:28.691Z,16.15
2018-11-28T23:10:57.043Z,19.00
2018-11-28T23:13:25.687Z,16.30
2018-11-28T23:15:54.071Z,16.87
2018-11-28T23:18:22.478Z,16.85
2018-11-28T23:20:50.723Z,18.48
2018-11-28T23:23:19.942Z,16.30
2018-11-28T23:25:48.461Z,16.30
2018-11-28T23:28:17.292Z,17.32
2018-11-28T23:30:45.606Z,17.48
2018-11-28T23:33:16.255Z,18.00
2018-11-28T23:35:42.645Z,17.25
2018-11-28T23:38:11.451Z,18.30
2018-11-28T23:40:39.954Z,17.57
2018-11-28T23:43:08.588Z,16.20
2018-11-28T23:45:36.882Z,17.75
2018-11-28T23:48:05.384Z,18.82
2018-11-28T23:50:34.648Z,20.35
2018-11-28T23:53:03.256Z,18.85
2018-11-28T23:55:31.826Z,18.90
2018-11-28T23:57:59.966Z,18.57
